createdAt,value
2022-12-14T00:00:23.565Z,95734.84
2022-12-14T00:03:25.206Z,95730.34
2022-12-14T00:06:29.816Z,95725.72
2022-12-14T00:09:31.302Z,95731.03
2022-12-14T00:12:32.794Z,95725.72
2022-12-14T00:15:36.127Z,95730.19
2022-12-14T00:18:38.739Z,95721.34
2022-12-14T00:21:40.201Z,95733.06
2022-12-14T00:24:41.947Z,95729.94
2022-12-14T00:27:45.030Z,95725.16
2022-12-14T00:30:46.569Z,95723.41
2022-12-14T00:33:48.332Z,95705.00
2022-12-14T00:36:49.862Z,95716.19
2022-12-14T00:39:51.511Z,95708.81
2022-12-14T00:42:53.219Z,95719.44
2022-12-14T00:45:55.200Z,95704.28
2022-12-14T00:48:56.717Z,95698.97
2022-12-14T00:51:58.265Z,95708.78
2022-12-14T00:55:00.437Z,95705.53
2022-12-14T00:58:01.999Z,95705.91
2022-12-14T01:01:06.882Z,95703.31
2022-12-14T01:04:22.378Z,95688.19
2022-12-14T01:07:24.060Z,95684.53
2022-12-14T01:10:25.583Z,95693.66
2022-12-14T01:13:27.372Z,95681.38
2022-12-14T01:16:29.260Z,95683.41
2022-12-14T01:19:31.065Z,95677.78
2022-12-14T01:22:32.531Z,95670.28
2022-12-14T01:25:34.212Z,95662.00
2022-12-14T01:28:36.404Z,95663.22
2022-12-14T01:31:38.918Z,95665.25
2022-12-14T01:34:40.531Z,95662.22
2022-12-14T01:37:42.068Z,95668.47
2022-12-14T01:40:43.508Z,95658.13
2022-12-14T01:43:50.602Z,95651.34
2022-12-14T01:46:59.771Z,95645.03
2022-12-14T01:50:10.797Z,95626.63
2022-12-14T01:53:18.484Z,95631.50
2022-12-14T01:56:20.140Z,95629.69
2022-12-14T01:59:31.143Z,95639.41
2022-12-14T02:02:33.082Z,95613.50
2022-12-14T02:05:37.564Z,95627.03
2022-12-14T02:08:39.669Z,95611.75
2022-12-14T02:11:55.523Z,95609.06
2022-12-14T02:14:57.647Z,95607.78
2022-12-14T02:18:01.883Z,95615.81
2022-12-14T02:21:34.236Z,95611.63
2022-12-14T02:24:49.273Z,95616.38
2022-12-14T02:28:01.994Z,95618.84
2022-12-14T02:31:26.222Z,95629.00
2022-12-14T02:34:33.750Z,95631.59
2022-12-14T02:37:40.364Z,95620.81
2022-12-14T02:41:03.471Z,95618.84
2022-12-14T02:44:19.986Z,95620.47
2022-12-14T02:47:35.272Z,95630.13
2022-12-14T02:50:49.190Z,95625.50
2022-12-14T02:54:24.808Z,95633.69
2022-12-14T02:57:37.170Z,95637.19
2022-12-14T03:00:39.020Z,95632.69
2022-12-14T03:03:41.436Z,95631.50
2022-12-14T03:06:58.436Z,95629.88
2022-12-14T03:10:14.875Z,95631.91
2022-12-14T03:13:44.663Z,95627.97
2022-12-14T03:16:50.315Z,95621.66
2022-12-14T03:20:12.305Z,95620.81
2022-12-14T03:23:21.457Z,95611.22
2022-12-14T03:26:45.613Z,95621.84
2022-12-14T03:29:55.244Z,95611.97
2022-12-14T03:33:03.556Z,95609.91
2022-12-14T03:36:14.219Z,95587.53
2022-12-14T03:39:29.451Z,95587.16
2022-12-14T03:42:54.825Z,95586.88
2022-12-14T03:46:08.287Z,95579.22
2022-12-14T03:49:15.516Z,95580.84
2022-12-14T03:52:35.168Z,95576.50
2022-12-14T03:56:00.964Z,95583.28
2022-12-14T03:59:12.300Z,95582.69
2022-12-14T04:02:19.353Z,95567.72
2022-12-14T04:05:20.942Z,95573.47
2022-12-14T04:08:31.431Z,95572.06
2022-12-14T04:11:56.726Z,95559.88
2022-12-14T04:15:30.231Z,95555.94
2022-12-14T04:18:59.691Z,95566.81
2022-12-14T04:22:13.924Z,95536.84
2022-12-14T04:25:40.572Z,95540.63
2022-12-14T04:29:10.961Z,95539.44
2022-12-14T04:32:22.185Z,95529.06
2022-12-14T04:35:40.169Z,95534.94
2022-12-14T04:38:44.120Z,95511.06
2022-12-14T04:41:50.129Z,95511.94
2022-12-14T04:45:01.219Z,95504.16
2022-12-14T04:48:23.906Z,95503.66
2022-12-14T04:51:36.231Z,95498.09
2022-12-14T04:55:00.911Z,95484.44
2022-12-14T04:58:13.559Z,95482.94
2022-12-14T05:01:49.483Z,95464.13
2022-12-14T05:05:08.656Z,95462.06
2022-12-14T05:08:27.170Z,95461.91
2022-12-14T05:11:53.155Z,95463.81
2022-12-14T05:15:08.065Z,95455.41
2022-12-14T05:18:10.258Z,95437.06
2022-12-14T05:21:34.769Z,95444.84
2022-12-14T05:24:36.464Z,95446.09
2022-12-14T05:27:40.874Z,95441.78
2022-12-14T05:30:42.642Z,95430.78
2022-12-14T05:33:50.445Z,95440.34
2022-12-14T05:36:51.936Z,95445.34
2022-12-14T05:39:54.545Z,95440.75
2022-12-14T05:43:13.207Z,95438.97
2022-12-14T05:46:17.219Z,95438.53
2022-12-14T05:49:18.819Z,95438.81
2022-12-14T05:52:20.513Z,95432.34
2022-12-14T05:55:22.354Z,95439.03
2022-12-14T05:58:23.872Z,95430.28
2022-12-14T06:01:25.450Z,95427.63
2022-12-14T06:04:27.123Z,95431.00
2022-12-14T06:07:28.637Z,95416.25
2022-12-14T06:10:30.172Z,95424.34
2022-12-14T06:13:31.755Z,95429.06
2022-12-14T06:16:34.208Z,95421.81
2022-12-14T06:19:35.747Z,95418.47
2022-12-14T06:22:39.478Z,95417.53
2022-12-14T06:25:44.401Z,95421.44
2022-12-14T06:28:46.114Z,95413.22
2022-12-14T06:31:49.468Z,95408.28
2022-12-14T06:34:51.348Z,95395.22
2022-12-14T06:37:52.891Z,95393.41
2022-12-14T06:40:55.080Z,95392.63
2022-12-14T06:43:57.280Z,95393.13
2022-12-14T06:46:58.950Z,95392.31
2022-12-14T06:50:00.620Z,95403.16
2022-12-14T06:53:02.132Z,95393.03
2022-12-14T06:56:12.942Z,95382.22
2022-12-14T06:59:16.656Z,95383.91
2022-12-14T07:02:18.320Z,95377.44
2022-12-14T07:05:20.533Z,95393.03
2022-12-14T07:08:22.015Z,95388.84
2022-12-14T07:11:24.190Z,95399.22
2022-12-14T07:14:25.802Z,95387.94
2022-12-14T07:17:27.956Z,95392.75
2022-12-14T07:20:29.590Z,95399.28
2022-12-14T07:23:33.509Z,95398.19
2022-12-14T07:26:36.374Z,95404.47
2022-12-14T07:29:37.964Z,95385.47
2022-12-14T07:32:39.507Z,95375.75
2022-12-14T07:35:41.211Z,95394.09
2022-12-14T07:38:44.539Z,95393.28
2022-12-14T07:41:47.609Z,95394.97
2022-12-14T07:44:55.367Z,95389.09
2022-12-14T07:47:58.036Z,95386.88
2022-12-14T07:51:08.271Z,95386.72
2022-12-14T07:54:11.475Z,95380.72
2022-12-14T07:57:13.010Z,95389.06
2022-12-14T08:00:14.794Z,95397.44
2022-12-14T08:03:16.446Z,95395.94
2022-12-14T08:06:20.504Z,95389.72
2022-12-14T08:09:21.925Z,95393.13
2022-12-14T08:12:23.682Z,95403.00
2022-12-14T08:15:25.279Z,95404.25
2022-12-14T08:18:26.799Z,95405.63
2022-12-14T08:21:29.084Z,95414.81
2022-12-14T08:24:30.587Z,95406.66
2022-12-14T08:27:32.183Z,95404.78
2022-12-14T08:30:38.912Z,95403.78
2022-12-14T08:33:41.831Z,95390.75
2022-12-14T08:36:43.401Z,95406.50
2022-12-14T08:39:45.114Z,95402.22
2022-12-14T08:42:51.198Z,95409.00
2022-12-14T08:45:54.886Z,95402.41
2022-12-14T08:48:56.843Z,95393.09
2022-12-14T08:51:58.335Z,95405.16
2022-12-14T08:55:00.042Z,95400.34
2022-12-14T08:58:01.724Z,95396.91
2022-12-14T09:01:12.305Z,95405.84
2022-12-14T09:04:13.997Z,95396.09
2022-12-14T09:07:15.898Z,95400.50
2022-12-14T09:10:17.396Z,95404.22
2022-12-14T09:13:19.094Z,95412.66
2022-12-14T09:16:21.872Z,95403.09
2022-12-14T09:19:23.458Z,95399.22
2022-12-14T09:22:25.023Z,95410.25
2022-12-14T09:25:26.741Z,95415.16
2022-12-14T09:28:29.267Z,95413.72
2022-12-14T09:31:30.843Z,95425.78
2022-12-14T09:34:32.376Z,95420.59
2022-12-14T09:37:33.926Z,95430.22
2022-12-14T09:40:35.619Z,95426.31
2022-12-14T09:43:47.857Z,95415.75
2022-12-14T09:47:10.835Z,95420.63
2022-12-14T09:50:18.785Z,95423.91
2022-12-14T09:53:21.816Z,95417.56
2022-12-14T09:56:23.564Z,95416.41
2022-12-14T09:59:28.139Z,95404.03
2022-12-14T10:02:45.124Z,95406.16
2022-12-14T10:06:05.566Z,95401.59
2022-12-14T10:09:14.761Z,95401.44
2022-12-14T10:12:52.656Z,95390.38
2022-12-14T10:16:00.321Z,95394.13
2022-12-14T10:19:33.683Z,95393.97
2022-12-14T10:22:39.672Z,95404.38
2022-12-14T10:25:43.996Z,95392.00
2022-12-14T10:29:00.944Z,95389.72
2022-12-14T10:32:28.917Z,95392.31
2022-12-14T10:35:45.660Z,95382.22
2022-12-14T10:39:02.128Z,95379.47
2022-12-14T10:42:34.049Z,95370.03
2022-12-14T10:45:54.547Z,95369.22
2022-12-14T10:49:21.138Z,95368.56
2022-12-14T10:52:25.601Z,95364.66
2022-12-14T10:55:38.805Z,95365.31
2022-12-14T10:58:40.682Z,95365.31
2022-12-14T11:01:42.960Z,95356.34
2022-12-14T11:04:51.349Z,95356.00
2022-12-14T11:07:53.023Z,95363.78
2022-12-14T11:11:18.671Z,95345.22
2022-12-14T11:14:23.403Z,95364.59
2022-12-14T11:17:44.099Z,95360.69
2022-12-14T11:21:04.441Z,95354.09
2022-12-14T11:24:06.873Z,95364.34
2022-12-14T11:27:11.136Z,95346.78
2022-12-14T11:30:16.652Z,95348.06
2022-12-14T11:33:18.262Z,95360.41
2022-12-14T11:36:31.893Z,95346.78
2022-12-14T11:39:40.892Z,95349.09
2022-12-14T11:42:49.000Z,95345.66
2022-12-14T11:45:51.608Z,95355.75
2022-12-14T11:48:53.326Z,95348.75
2022-12-14T11:52:20.073Z,95337.06
2022-12-14T11:55:26.661Z,95342.56
2022-12-14T11:58:33.519Z,95352.31
2022-12-14T12:01:35.633Z,95348.72
2022-12-14T12:04:44.324Z,95365.94
2022-12-14T12:07:58.106Z,95357.16
2022-12-14T12:11:02.561Z,95376.47
2022-12-14T12:14:18.828Z,95383.25
2022-12-14T12:17:36.144Z,95364.50
2022-12-14T12:20:42.656Z,95410.69
2022-12-14T12:23:57.301Z,95417.31
2022-12-14T12:27:11.859Z,95418.41
2022-12-14T12:30:29.297Z,95407.09
2022-12-14T12:33:56.363Z,95400.09
2022-12-14T12:37:25.960Z,95410.75
2022-12-14T12:40:56.138Z,95402.25
2022-12-14T12:44:49.548Z,95403.72
2022-12-14T12:48:01.778Z,95417.84
2022-12-14T12:51:13.285Z,95411.75
2022-12-14T12:54:21.797Z,95409.84
2022-12-14T12:57:28.325Z,95420.28
2022-12-14T13:00:31.177Z,95432.63
2022-12-14T13:03:47.201Z,95446.16
2022-12-14T13:06:53.957Z,95440.78
2022-12-14T13:10:05.875Z,95448.28
2022-12-14T13:13:14.879Z,95446.34
2022-12-14T13:16:29.410Z,95454.97
2022-12-14T13:19:50.510Z,95450.88
2022-12-14T13:22:53.723Z,95458.03
2022-12-14T13:26:07.752Z,95449.59
2022-12-14T13:29:27.539Z,95460.66
2022-12-14T13:32:44.343Z,95452.34
2022-12-14T13:36:18.115Z,95462.44
2022-12-14T13:39:36.480Z,95458.38
2022-12-14T13:42:52.732Z,95455.75
2022-12-14T13:45:54.946Z,95462.63
2022-12-14T13:49:06.821Z,95451.53
2022-12-14T13:52:35.283Z,95449.28
2022-12-14T13:55:46.132Z,95451.84
2022-12-14T13:58:50.747Z,95460.31
2022-12-14T14:01:55.653Z,95469.47
2022-12-14T14:05:15.433Z,95471.72
2022-12-14T14:08:41.018Z,95460.66
2022-12-14T14:11:44.953Z,95477.56
2022-12-14T14:15:51.978Z,95473.97
2022-12-14T14:19:12.944Z,95480.59
2022-12-14T14:22:27.127Z,95490.06
2022-12-14T14:25:34.474Z,95501.06
2022-12-14T14:28:37.903Z,95505.91
2022-12-14T14:32:00.887Z,95513.72
2022-12-14T14:35:27.216Z,95512.84
2022-12-14T14:38:31.829Z,95506.38
2022-12-14T14:41:42.484Z,95510.00
2022-12-14T14:44:56.663Z,95510.22
2022-12-14T14:48:02.219Z,95520.81
2022-12-14T14:51:14.476Z,95534.47
2022-12-14T14:54:37.011Z,95533.81
2022-12-14T14:57:57.419Z,95541.63
2022-12-14T15:01:06.171Z,95529.75
2022-12-14T15:04:23.066Z,95538.22
2022-12-14T15:07:29.850Z,95545.84
2022-12-14T15:10:37.362Z,95555.91
2022-12-14T15:14:35.545Z,95554.75
2022-12-14T15:17:37.148Z,95562.69
2022-12-14T15:20:40.768Z,95574.09
2022-12-14T15:23:49.475Z,95573.75
2022-12-14T15:26:51.952Z,95580.25
2022-12-14T15:30:06.563Z,95585.38
2022-12-14T15:33:10.104Z,95583.63
2022-12-14T15:36:16.107Z,95607.69
2022-12-14T15:39:29.323Z,95612.94
2022-12-14T15:42:30.979Z,95607.13
2022-12-14T15:45:41.145Z,95613.31
2022-12-14T15:48:42.983Z,95613.69
2022-12-14T15:51:44.789Z,95619.16
2022-12-14T15:54:46.396Z,95626.41
2022-12-14T15:57:48.369Z,95635.88
2022-12-14T16:00:52.465Z,95635.38
2022-12-14T16:03:55.218Z,95642.53
2022-12-14T16:07:08.261Z,95643.34
2022-12-14T16:10:24.797Z,95644.34
2022-12-14T16:13:37.019Z,95643.25
2022-12-14T16:16:38.864Z,95646.34
2022-12-14T16:19:58.492Z,95643.91
2022-12-14T16:23:15.954Z,95644.72
2022-12-14T16:26:26.786Z,95639.50
2022-12-14T16:29:31.483Z,95629.75
2022-12-14T16:32:33.012Z,95642.09
2022-12-14T16:35:37.225Z,95639.13
2022-12-14T16:38:54.995Z,95642.03
2022-12-14T16:42:01.095Z,95639.31
2022-12-14T16:45:02.779Z,95647.88
2022-12-14T16:48:14.573Z,95660.72
2022-12-14T16:51:32.762Z,95660.34
2022-12-14T16:54:40.745Z,95653.66
2022-12-14T16:57:52.631Z,95651.25
2022-12-14T17:01:00.875Z,95667.00
2022-12-14T17:04:04.932Z,95664.31
2022-12-14T17:07:06.808Z,95669.75
2022-12-14T17:10:16.076Z,95686.31
2022-12-14T17:13:17.948Z,95698.19
2022-12-14T17:16:21.078Z,95682.59
2022-12-14T17:19:37.051Z,95677.31
2022-12-14T17:22:38.639Z,95692.63
2022-12-14T17:25:44.669Z,95695.59
2022-12-14T17:28:48.267Z,95707.56
2022-12-14T17:31:52.375Z,95711.00
2022-12-14T17:34:53.841Z,95717.31
2022-12-14T17:37:55.794Z,95714.09
2022-12-14T17:40:57.457Z,95721.28
2022-12-14T17:43:59.008Z,95715.78
2022-12-14T17:47:00.569Z,95708.06
2022-12-14T17:50:02.162Z,95705.78
2022-12-14T17:53:03.714Z,95699.16
2022-12-14T17:56:05.588Z,95698.19
2022-12-14T17:59:07.185Z,95703.75
2022-12-14T18:02:30.161Z,95705.38
2022-12-14T18:05:34.255Z,95700.84
2022-12-14T18:08:35.907Z,95699.00
2022-12-14T18:11:49.355Z,95709.91
2022-12-14T18:14:59.773Z,95713.13
2022-12-14T18:18:01.690Z,95707.78
2022-12-14T18:21:04.892Z,95708.44
2022-12-14T18:24:11.507Z,95707.06
2022-12-14T18:27:13.729Z,95711.31
2022-12-14T18:30:15.360Z,95711.66
2022-12-14T18:33:19.397Z,95713.34
2022-12-14T18:36:21.565Z,95700.00
2022-12-14T18:39:23.171Z,95712.44
2022-12-14T18:42:25.391Z,95695.69
2022-12-14T18:45:33.830Z,95701.88
2022-12-14T18:48:35.294Z,95722.41
2022-12-14T18:51:36.790Z,95728.13
2022-12-14T18:54:38.232Z,95730.72
2022-12-14T18:57:39.847Z,95730.88
2022-12-14T19:00:41.368Z,95736.53
2022-12-14T19:03:43.807Z,95735.72
2022-12-14T19:06:46.040Z,95739.50
2022-12-14T19:09:47.777Z,95752.38
2022-12-14T19:12:50.582Z,95754.53
2022-12-14T19:15:52.722Z,95750.00
2022-12-14T19:18:54.409Z,95759.59
2022-12-14T19:21:56.029Z,95747.03
2022-12-14T19:24:57.632Z,95736.31
2022-12-14T19:28:26.118Z,95731.09
2022-12-14T19:31:22.062Z,95727.84
2022-12-14T19:34:23.872Z,95730.31
2022-12-14T19:37:25.555Z,95727.22
2022-12-14T19:40:27.268Z,95717.09
2022-12-14T19:43:29.833Z,95718.88
2022-12-14T19:46:31.775Z,95701.47
2022-12-14T19:49:33.540Z,95717.53
2022-12-14T19:52:35.348Z,95711.66
2022-12-14T19:55:36.870Z,95708.28
2022-12-14T19:58:38.483Z,95711.25
2022-12-14T20:01:46.260Z,95711.38
2022-12-14T20:04:49.319Z,95700.00
2022-12-14T20:07:50.905Z,95708.97
2022-12-14T20:10:53.139Z,95707.53
2022-12-14T20:13:58.897Z,95718.75
2022-12-14T20:17:02.619Z,95721.38
2022-12-14T20:20:04.563Z,95728.38
2022-12-14T20:23:06.064Z,95735.03
2022-12-14T20:26:12.202Z,95737.47
2022-12-14T20:29:13.870Z,95744.28
2022-12-14T20:32:15.520Z,95729.47
2022-12-14T20:35:18.746Z,95736.66
2022-12-14T20:38:20.266Z,95732.78
2022-12-14T20:41:22.780Z,95734.38
2022-12-14T20:44:24.385Z,95728.53
2022-12-14T20:47:26.027Z,95730.38
2022-12-14T20:50:27.641Z,95748.91
2022-12-14T20:53:30.651Z,95754.25
2022-12-14T20:56:34.315Z,95755.19
2022-12-14T20:59:35.973Z,95757.09
2022-12-14T21:03:02.620Z,95761.34
2022-12-14T21:06:04.556Z,95755.13
2022-12-14T21:09:10.322Z,95769.56
2022-12-14T21:12:20.640Z,95757.50
2022-12-14T21:15:22.217Z,95765.53
2022-12-14T21:18:24.632Z,95762.56
2022-12-14T21:21:26.476Z,95757.97
2022-12-14T21:25:01.100Z,95749.19
2022-12-14T21:27:49.965Z,95744.91
2022-12-14T21:30:51.532Z,95758.25
2022-12-14T21:33:54.600Z,95737.38
2022-12-14T21:36:56.448Z,95735.16
2022-12-14T21:39:58.025Z,95743.53
2022-12-14T21:42:59.547Z,95740.13
2022-12-14T21:46:01.196Z,95743.28
2022-12-14T21:49:03.210Z,95753.38
2022-12-14T21:52:07.545Z,95757.03
2022-12-14T21:55:09.536Z,95762.22
2022-12-14T21:58:17.220Z,95752.88
2022-12-14T22:01:18.977Z,95751.97
2022-12-14T22:04:24.523Z,95762.22
2022-12-14T22:07:31.268Z,95747.47
2022-12-14T22:10:32.862Z,95743.59
2022-12-14T22:13:37.669Z,95749.19
2022-12-14T22:16:40.968Z,95762.56
2022-12-14T22:19:42.700Z,95757.06
2022-12-14T22:22:44.889Z,95761.91
2022-12-14T22:25:50.211Z,95769.19
2022-12-14T22:28:52.725Z,95776.63
2022-12-14T22:31:54.238Z,95790.91
2022-12-14T22:34:55.882Z,95785.72
2022-12-14T22:37:58.779Z,95795.50
2022-12-14T22:41:05.099Z,95804.97
2022-12-14T22:44:11.620Z,95804.38
2022-12-14T22:47:13.328Z,95807.56
2022-12-14T22:50:15.006Z,95810.75
2022-12-14T22:53:26.721Z,95814.38
2022-12-14T22:56:57.666Z,95809.41
2022-12-14T23:00:04.837Z,95807.81
2022-12-14T23:03:06.836Z,95813.16
2022-12-14T23:06:15.505Z,95819.22
2022-12-14T23:09:35.437Z,95824.44
2022-12-14T23:12:55.760Z,95814.94
2022-12-14T23:16:16.021Z,95791.22
2022-12-14T23:19:36.103Z,95808.09
2022-12-14T23:22:56.485Z,95825.03
2022-12-14T23:26:20.532Z,95830.75
2022-12-14T23:29:40.397Z,95833.88
2022-12-14T23:33:00.319Z,95837.56
2022-12-14T23:36:20.368Z,95835.94
2022-12-14T23:39:40.235Z,95835.69
2022-12-14T23:43:00.253Z,95845.50
2022-12-14T23:46:24.499Z,95848.31
2022-12-14T23:49:44.620Z,95862.31
2022-12-14T23:53:04.495Z,95846.72
2022-12-14T23:56:25.106Z,95862.63
2022-12-14T23:59:49.532Z,95861.34
